Time;durP1;ratioP1;P1;durP2;ratioP2;P2;SDS_P1;SDS_P2;PMS_P1;PMS_P2;Temp;Humidity;BMP_temperature;BMP_pressure;BME280_temperature;BME280_humidity;BME280_pressure;Samples;Min_cycle;Max_cycle;Signal;HPM_P1;HPM_P2
2020/12/07 00:02:39;;;;;;;11.05;6.80;;;;;;;7.82;69.53;98779.63;4201183;34;32614;-95
2020/12/07 00:05:28;;;;;;;11.18;7.12;;;;;;;8.33;67.75;98792.06;4259406;28;32310;-94
2020/12/07 00:08:06;;;;;;;10.30;6.90;;;;;;;7.60;69.89;98783.16;4238671;33;32903;-96
2020/12/07 00:10:52;;;;;;;13.30;7.20;;;;;;;7.97;68.95;98793.03;4226751;33;32653;-93
2020/12/07 00:13:24;;;;;;;13.60;6.78;;;;;;;7.54;70.25;98796.53;4223215;33;34736;-94
2020/12/07 00:16:06;;;;;;;;;;;;;;;7.67;69.99;98804.72;4208640;33;32407;-95
2020/12/07 00:18:38;;;;;;;12.25;6.68;;;;;;;7.69;69.60;98804.53;4219540;33;34150;-95
2020/12/07 00:21:11;;;;;;;8.98;6.05;;;;;;;7.94;68.76;98808.50;4209833;33;33946;-93
2020/12/07 00:23:43;;;;;;;11.85;6.43;;;;;;;8.19;67.96;98812.63;4254631;28;32867;-95
2020/12/07 00:26:27;;;;;;;10.93;6.00;;;;;;;8.18;67.75;98814.50;4183554;34;33778;-95
2020/12/07 00:29:27;;;;;;;9.20;6.12;;;;;;;8.00;68.40;98814.16;4206895;34;33877;-96
2020/12/07 00:32:20;;;;;;;9.15;5.95;;;;;;;7.55;69.78;98809.78;4192273;34;35069;-96
2020/12/07 00:35:00;;;;;;;12.75;6.32;;;;;;;8.00;68.64;98809.59;4197627;33;33646;-96
2020/12/07 00:38:20;;;;;;;11.52;6.45;;;;;;;7.83;68.94;98803.66;4240956;33;32900;-96
2020/12/07 00:40:55;;;;;;;12.65;6.28;;;;;;;7.76;69.09;98802.75;4213010;33;34448;-96
2020/12/07 00:43:40;;;;;;;12.37;6.70;;;;;;;8.11;67.74;98821.69;4198586;34;32543;-95
2020/12/07 00:46:13;;;;;;;11.45;6.20;;;;;;;7.78;68.55;98803.38;4221465;33;34594;-96
2020/12/07 00:48:59;;;;;;;8.20;5.53;;;;;;;8.28;67.10;98815.00;4204667;33;31935;-95
2020/12/07 00:51:35;;;;;;;8.25;5.05;;;;;;;8.04;67.67;98810.03;4234911;33;34769;-96
2020/12/07 00:54:30;;;;;;;11.48;5.87;;;;;;;8.00;67.93;98808.78;4214151;33;34056;-96
2020/12/07 00:57:24;;;;;;;9.00;5.03;;;;;;;8.13;67.87;98800.81;4233099;33;35333;-95
2020/12/07 01:00:04;;;;;;;7.75;4.87;;;;;;;8.10;67.37;98802.03;4226222;33;34077;-95
2020/12/07 01:02:46;;;;;;;7.43;5.00;;;;;;;8.03;67.56;98806.50;4212976;34;34618;-96
2020/12/07 01:05:36;;;;;;;9.25;5.28;;;;;;;8.30;67.11;98804.03;4217044;34;33078;-96
2020/12/07 01:08:22;;;;;;;8.73;4.47;;;;;;;7.99;67.88;98807.09;4212699;33;33149;-93
2020/12/07 01:10:57;;;;;;;7.00;4.30;;;;;;;8.30;67.32;98810.25;4215783;34;35877;-96
2020/12/07 01:13:32;;;;;;;9.55;5.25;;;;;;;8.06;67.36;98814.19;4211876;34;34223;-92
2020/12/07 01:16:05;;;;;;;7.80;4.82;;;;;;;8.64;65.75;98814.06;4209852;33;32822;-95
2020/12/07 01:18:41;;;;;;;9.57;5.15;;;;;;;8.13;67.35;98830.44;4233862;33;33899;-96
2020/12/07 01:21:32;;;;;;;9.38;5.62;;;;;;;8.30;66.81;98826.41;4194125;33;32634;-96
2020/12/07 01:24:30;;;;;;;10.38;4.97;;;;;;;8.57;65.96;98837.41;4191133;33;35053;-96
2020/12/07 01:27:20;;;;;;;9.15;5.40;;;;;;;8.37;66.40;98836.38;4217026;34;33201;-93
2020/12/07 01:29:56;;;;;;;8.07;5.30;;;;;;;8.40;66.49;98833.34;4215635;34;33308;-96
2020/12/07 01:32:42;;;;;;;9.88;5.80;;;;;;;8.35;66.63;98830.38;4219385;34;31732;-96
2020/12/07 01:35:15;;;;;;;9.35;5.65;;;;;;;8.56;66.10;98824.16;4222461;33;32999;-94
2020/12/07 01:38:05;;;;;;;12.35;5.07;;;;;;;7.76;68.19;98821.59;4207116;33;33171;-96
2020/12/07 01:40:50;;;;;;;9.25;5.18;;;;;;;8.14;67.33;98818.59;4209841;34;33043;-95
2020/12/07 01:43:42;;;;;;;6.85;4.97;;;;;;;8.43;66.46;98823.00;4187349;34;31879;-96
2020/12/07 01:46:35;;;;;;;9.65;4.93;;;;;;;8.34;66.21;98816.09;4202190;34;32808;-96
2020/12/07 01:49:12;;;;;;;7.78;5.07;;;;;;;8.72;65.28;98814.94;4184400;34;33695;-95
2020/12/07 01:51:54;;;;;;;8.88;5.00;;;;;;;8.21;66.43;98816.81;4200878;33;33417;-96
2020/12/07 01:54:30;;;;;;;9.13;5.50;;;;;;;7.41;69.22;98811.50;4198302;33;32928;-95
2020/12/07 01:57:37;;;;;;;10.77;5.62;;;;;;;7.99;67.58;98809.78;4230865;28;33746;-96
2020/12/07 02:00:23;;;;;;;6.90;4.35;;;;;;;8.35;66.13;98811.53;4237500;28;34158;-96
2020/12/07 02:03:11;;;;;;;8.65;5.20;;;;;;;8.53;65.47;98808.38;4222705;33;32844;-96
2020/12/07 02:05:55;;;;;;;8.85;4.75;;;;;;;8.18;66.87;98801.06;4180950;34;32054;-94
2020/12/07 02:08:51;;;;;;;7.07;4.55;;;;;;;8.34;65.87;98805.31;4156605;34;34615;-93
2020/12/07 02:11:25;;;;;;;6.22;4.15;;;;;;;8.55;65.40;98815.25;4183708;34;34523;-96
2020/12/07 02:14:22;;;;;;;6.90;4.40;;;;;;;8.41;65.82;98806.22;4218251;28;34271;-94
2020/12/07 02:16:55;;;;;;;12.75;4.85;;;;;;;8.36;65.85;98814.03;4199130;34;35021;-93
2020/12/07 02:19:36;;;;;;;7.62;3.80;;;;;;;8.11;66.03;98805.53;4189344;34;35475;-93
2020/12/07 02:22:23;;;;;;;7.93;4.07;;;;;;;8.27;65.93;98810.66;4213074;33;32654;-96
2020/12/07 02:25:20;;;;;;;6.12;3.58;;;;;;;8.61;65.10;98808.25;4220907;34;36155;-95
2020/12/07 02:28:26;;;;;;;5.95;3.70;;;;;;;8.59;64.28;98807.59;4204348;34;33364;-93
2020/12/07 02:31:16;;;;;;;7.47;4.10;;;;;;;8.20;66.00;98811.63;4188217;34;34830;-95
2020/12/07 02:34:10;;;;;;;7.15;3.58;;;;;;;7.61;67.13;98805.50;4269878;28;35228;-95
2020/12/07 02:36:43;;;;;;;6.57;4.22;;;;;;;8.21;65.33;98808.72;4198181;34;32896;-95
2020/12/07 02:39:16;;;;;;;6.55;3.65;;;;;;;7.76;66.87;98813.50;4206306;34;33009;-95
2020/12/07 02:41:51;;;;;;;5.28;3.45;;;;;;;8.49;64.99;98805.25;4193668;34;34328;-94
2020/12/07 02:44:24;;;;;;;5.22;3.58;;;;;;;7.91;66.47;98806.19;4185160;34;33950;-96
2020/12/07 02:47:15;;;;;;;5.95;3.22;;;;;;;8.21;65.17;98795.28;4187331;34;33442;-93
2020/12/07 02:49:48;;;;;;;8.90;3.85;;;;;;;7.95;66.02;98785.97;4192729;34;33246;-96
2020/12/07 02:52:39;;;;;;;5.22;3.45;;;;;;;7.61;67.50;98789.37;4185311;34;33392;-96
2020/12/07 02:55:30;;;;;;;5.40;3.33;;;;;;;7.99;66.21;98780.19;4189875;34;33741;-96
2020/12/07 02:58:16;;;;;;;6.95;3.62;;;;;;;7.64;67.47;98782.78;4196508;34;35174;-96
2020/12/07 03:01:22;;;;;;;5.97;3.45;;;;;;;7.91;66.37;98787.38;4163026;28;33909;-94
2020/12/07 03:03:57;;;;;;;7.12;3.80;;;;;;;7.67;67.04;98780.53;4182006;34;35176;-94
2020/12/07 03:06:30;;;;;;;6.30;4.05;;;;;;;8.07;65.99;98785.44;4183470;34;33846;-92
2020/12/07 03:09:09;;;;;;;6.28;3.95;;;;;;;7.88;66.18;98779.69;4191138;34;34468;-96
2020/12/07 03:11:56;;;;;;;5.87;4.10;;;;;;;7.93;66.11;98782.66;4196085;33;32929;-95
2020/12/07 03:14:34;;;;;;;6.28;3.53;;;;;;;7.52;67.42;98779.75;4215384;34;34095;-95
2020/12/07 03:17:40;;;;;;;6.78;3.87;;;;;;;7.43;67.62;98785.25;4188496;34;36205;-96
2020/12/07 03:20:21;;;;;;;7.07;3.58;;;;;;;7.57;67.00;98788.94;4209794;34;34126;-96
2020/12/07 03:23:34;;;;;;;7.18;4.12;;;;;;;7.69;66.95;98785.72;4220220;33;34881;-94
2020/12/07 03:26:08;;;;;;;6.95;3.80;;;;;;;7.91;66.31;98794.63;4212275;34;34148;-96
2020/12/07 03:29:04;;;;;;;7.40;4.07;;;;;;;7.53;67.58;98786.78;4247731;28;34600;-95
2020/12/07 03:31:45;;;;;;;7.22;4.00;;;;;;;7.36;67.87;98783.50;4198468;34;34295;-96
2020/12/07 03:34:36;;;;;;;6.72;4.75;;;;;;;7.63;67.06;98781.09;4195315;33;31992;-95
2020/12/07 03:37:29;;;;;;;9.55;4.93;;;;;;;7.50;67.42;98779.97;4181241;34;34895;-93
2020/12/07 03:40:03;;;;;;;12.48;5.18;;;;;;;7.62;66.92;98785.66;4179430;34;34927;-93
2020/12/07 03:42:48;;;;;;;10.52;5.18;;;;;;;7.47;67.37;98777.66;4197098;34;32413;-96
2020/12/07 03:45:23;;;;;;;7.45;4.70;;;;;;;7.18;68.48;98774.00;4197820;34;33921;-96
2020/12/07 03:48:03;;;;;;;18.73;12.32;;;;;;;7.44;67.45;98778.03;4197009;34;33909;-93
2020/12/07 03:50:52;;;;;;;7.90;4.62;;;;;;;7.70;66.76;98782.00;4189314;34;33109;-95
2020/12/07 03:53:51;;;;;;;6.57;4.65;;;;;;;7.54;66.84;98789.28;4190892;34;33997;-96
2020/12/07 03:56:51;;;;;;;7.95;4.10;;;;;;;7.46;67.09;98792.09;4200822;28;32186;-93
2020/12/07 03:59:25;;;;;;;16.10;4.05;;;;;;;7.83;66.06;98787.50;4194393;34;34812;-95
2020/12/07 04:02:17;;;;;;;9.20;4.35;;;;;;;7.97;65.65;98788.47;4154318;34;32621;-95
2020/12/07 04:08:11;;;;;;;8.68;4.62;;;;;;;7.68;66.76;98779.50;4169634;34;32883;-94
2020/12/07 04:11:17;;;;;;;8.98;4.47;;;;;;;7.75;66.43;98784.94;4179812;34;32916;-96
2020/12/07 04:13:50;;;;;;;8.35;4.82;;;;;;;7.85;65.97;98790.84;4212596;33;34292;-95
2020/12/07 04:16:29;;;;;;;8.68;5.30;;;;;;;7.60;66.77;98788.53;4187976;34;34207;-96
2020/12/07 04:19:13;;;;;;;9.93;4.95;;;;;;;7.48;66.89;98798.13;4274191;28;32524;-94
2020/12/07 04:21:46;;;;;;;7.78;4.97;;;;;;;7.67;66.36;98809.28;4209622;34;33187;-96
2020/12/07 04:24:19;;;;;;;9.93;5.10;;;;;;;7.70;66.59;98808.91;4206862;34;33510;-94
2020/12/07 04:26:53;;;;;;;9.93;6.15;;;;;;;7.96;65.61;98805.63;4219872;28;34042;-94
2020/12/07 04:29:43;;;;;;;7.53;4.62;;;;;;;7.22;67.94;98802.19;4362296;28;33639;-96
2020/12/07 04:32:21;;;;;;;9.50;4.57;;;;;;;7.67;66.55;98801.22;4200675;33;32791;-96
2020/12/07 04:35:30;;;;;;;8.07;4.62;;;;;;;7.70;66.31;98808.91;4214550;28;20147;-96
2020/12/07 04:38:08;;;;;;;7.03;4.07;;;;;;;8.11;65.28;98797.47;4262059;28;32312;-95
2020/12/07 04:40:42;;;;;;;5.97;4.30;;;;;;;7.93;65.59;98804.16;4205843;34;33260;-96
2020/12/07 04:43:31;;;;;;;6.53;4.35;;;;;;;7.94;65.65;98819.28;4238621;28;34483;-96
2020/12/07 04:46:31;;;;;;;8.75;4.85;;;;;;;8.01;65.65;98826.56;4193229;34;31113;-95
2020/12/07 04:49:10;;;;;;;6.75;4.40;;;;;;;7.41;67.39;98822.25;4184284;34;35328;-96
2020/12/07 04:51:45;;;;;;;8.77;4.85;;;;;;;7.93;66.05;98825.69;4193758;33;32324;-95
2020/12/07 04:54:20;;;;;;;7.87;4.60;;;;;;;7.51;67.15;98829.19;4173263;34;34597;-96
2020/12/07 04:57:20;;;;;;;8.85;4.57;;;;;;;7.27;67.92;98836.53;4197135;28;32565;-96
2020/12/07 04:59:54;;;;;;;9.80;4.87;;;;;;;8.07;65.61;98842.78;4187418;34;32434;-94
2020/12/07 05:02:44;;;;;;;7.83;4.67;;;;;;;7.95;65.89;98842.47;4242368;28;32467;31
2020/12/07 05:05:19;;;;;;;8.45;4.78;;;;;;;8.29;64.89;98830.16;4257983;28;32681;-96
2020/12/07 05:08:22;;;;;;;7.55;4.82;;;;;;;8.34;64.61;98842.16;4179732;34;34254;-96
2020/12/07 05:12:06;;;;;;;5.97;3.80;;;;;;;7.81;66.10;98854.12;4146409;34;32691;-95
2020/12/07 05:14:39;;;;;;;8.40;5.25;;;;;;;8.33;64.64;98849.41;4173074;28;34474;-94
2020/12/07 05:17:26;;;;;;;8.85;5.50;;;;;;;8.49;64.43;98853.72;4154885;34;35510;-96
2020/12/07 05:20:21;;;;;;;9.57;5.03;;;;;;;8.39;64.54;98855.91;4225836;28;31985;-96
2020/12/07 05:23:05;;;;;;;10.40;5.65;;;;;;;8.45;64.06;98849.75;4174330;34;34244;-96
2020/12/07 05:25:49;;;;;;;8.18;5.22;;;;;;;8.12;64.83;98852.97;4165629;34;20180;-94
2020/12/07 05:28:46;;;;;;;8.98;4.40;;;;;;;8.62;63.83;98853.84;4167603;34;33490;-96
2020/12/07 05:31:22;;;;;;;9.68;5.20;;;;;;;7.51;67.03;98853.38;4155342;34;34111;-95
2020/12/07 05:34:12;;;;;;;8.35;4.78;;;;;;;8.04;65.43;98853.09;4206377;28;34627;-96
2020/12/07 05:36:53;;;;;;;8.38;4.72;;;;;;;8.16;65.27;98850.72;4161668;34;33655;-96
2020/12/07 05:39:54;;;;;;;8.35;4.22;;;;;;;8.42;63.85;98856.31;4211484;33;34411;-96
2020/12/07 05:42:43;;;;;;;10.80;5.25;;;;;;;8.65;63.39;98850.75;4200749;33;33863;-95
2020/12/07 05:45:37;;;;;;;9.68;5.03;;;;;;;8.57;63.44;98853.56;4190804;34;33679;-96
2020/12/07 05:48:18;;;;;;;8.13;4.78;;;;;;;8.59;63.73;98856.06;4163754;34;33683;-96
2020/12/07 05:51:15;;;;;;;7.37;4.72;;;;;;;8.85;62.88;98855.44;4192893;33;32862;-96
2020/12/07 05:53:49;;;;;;;8.93;4.80;;;;;;;8.47;63.66;98861.16;4172928;34;34004;-93
2020/12/07 05:56:22;;;;;;;6.65;4.62;;;;;;;7.93;65.53;98857.13;4208049;33;34272;-94
2020/12/07 05:59:04;;;;;;;7.40;4.93;;;;;;;8.25;64.66;98858.47;4197395;33;33517;-92
2020/12/07 06:01:37;;;;;;;8.50;4.95;;;;;;;8.74;63.42;98855.97;4186162;34;35092;-93
2020/12/07 06:04:27;;;;;;;6.97;4.53;;;;;;;8.35;64.73;98851.91;4190632;34;33142;-95
2020/12/07 06:07:02;;;;;;;6.70;4.47;;;;;;;8.23;65.09;98852.47;4169502;34;35543;-94
2020/12/07 06:10:02;;;;;;;8.25;4.70;;;;;;;8.33;64.54;98851.28;4226508;28;33391;-96
2020/12/07 06:12:42;;;;;;;11.10;5.15;;;;;;;8.31;64.74;98844.22;4220581;34;32899;-95
2020/12/07 06:15:19;;;;;;;8.98;4.97;;;;;;;8.04;65.01;98843.19;4220619;34;33852;-96
2020/12/07 06:17:51;;;;;;;9.80;5.07;;;;;;;7.89;66.17;98845.94;4208456;34;33070;-91
2020/12/07 06:20:37;;;;;;;9.20;5.30;;;;;;;8.15;65.09;98841.81;4220721;34;33472;-95
2020/12/07 06:23:13;;;;;;;8.20;4.30;;;;;;;8.42;64.30;98836.66;4209580;34;34228;-93
2020/12/07 06:25:51;;;;;;;7.35;5.15;;;;;;;7.91;65.62;98837.66;4219556;34;34771;-91
2020/12/07 06:28:31;;;;;;;17.67;5.47;;;;;;;7.46;67.63;98851.25;4211872;34;33320;-95
2020/12/07 06:31:07;;;;;;;8.38;4.47;;;;;;;7.86;66.23;98846.31;4208800;34;33779;-92
2020/12/07 06:33:44;;;;;;;9.48;4.47;;;;;;;7.63;66.92;98845.66;4221786;34;34525;-93
2020/12/07 06:36:38;;;;;;;8.35;4.80;;;;;;;7.77;66.47;98859.06;4209135;34;34742;-96
2020/12/07 06:39:11;;;;;;;9.13;4.43;;;;;;;7.67;66.91;98858.53;4198298;34;34221;-96
2020/12/07 06:41:47;;;;;;;8.95;5.22;;;;;;;7.90;66.04;98855.69;4207792;34;32030;-93
2020/12/07 06:44:23;;;;;;;7.25;4.53;;;;;;;7.78;66.01;98849.97;4195660;34;34128;-94
2020/12/07 06:47:06;;;;;;;7.95;5.03;;;;;;;7.67;66.56;98853.16;4218344;34;33874;-96
2020/12/07 06:52:50;;;;;;;12.00;6.37;;;;;;;7.71;67.01;98850.91;4221558;34;34387;-96
2020/12/07 06:55:23;;;;;;;21.52;12.82;;;;;;;8.12;65.26;98851.09;4209651;34;33255;-95
2020/12/07 06:57:58;;;;;;;20.45;12.50;;;;;;;8.33;65.21;98857.50;4220706;34;34528;-93
2020/12/07 07:00:30;;;;;;;14.27;8.80;;;;;;;7.93;66.22;98866.06;4208933;34;33054;-94
2020/12/07 07:03:16;;;;;;;10.73;6.22;;;;;;;7.85;66.42;98862.66;4201727;34;33818;-95
2020/12/07 07:05:49;;;;;;;9.38;5.47;;;;;;;8.30;65.34;98861.41;4205620;34;32732;-96
2020/12/07 07:08:46;;;;;;;10.45;5.10;;;;;;;8.11;65.83;98870.12;4194357;34;33397;-96
2020/12/07 07:11:32;;;;;;;11.50;7.95;;;;;;;7.85;66.48;98874.22;4195797;34;34157;-96
2020/12/07 07:14:31;;;;;;;8.95;7.53;;;;;;;7.88;66.14;98870.34;4211849;34;32242;-96
2020/12/07 07:17:08;;;;;;;7.07;5.12;;;;;;;8.05;66.43;98865.53;4184738;34;34428;-96
2020/12/07 07:19:58;;;;;;;7.03;4.95;;;;;;;7.99;66.23;98877.06;4189877;34;32793;-96
2020/12/07 07:22:31;;;;;;;12.45;6.18;;;;;;;7.85;66.58;98876.94;4178260;34;32525;-94
2020/12/07 07:30:36;;;;;;;9.25;6.00;;;;;;;8.35;65.21;98893.13;4200501;34;34765;-95
2020/12/07 07:33:08;;;;;;;10.05;5.55;;;;;;;7.98;66.54;98897.78;4180356;34;33870;-93
2020/12/07 07:35:42;;;;;;;13.65;5.80;;;;;;;8.24;65.62;98894.50;4191546;34;33283;-91
2020/12/07 07:38:15;;;;;;;9.45;5.43;;;;;;;8.34;66.05;98898.72;4193216;34;33648;-90
2020/12/07 07:40:51;;;;;;;11.25;5.37;;;;;;;8.12;66.97;98902.25;4180810;34;33866;-96
2020/12/07 07:43:28;;;;;;;9.98;5.82;;;;;;;8.48;66.38;98900.53;4197626;34;34038;-96
2020/12/07 07:46:18;;;;;;;9.30;5.30;;;;;;;8.53;66.12;98916.94;4216682;28;32254;-93
2020/12/07 07:52:28;;;;;;;8.40;5.47;;;;;;;8.15;67.86;98917.19;4224149;33;34648;-94
2020/12/07 07:59:02;;;;;;;5.85;4.07;;;;;;;8.45;66.81;98927.84;4213475;34;31988;-96
2020/12/07 08:06:14;;;;;;;11.57;5.55;;;;;;;8.80;67.12;98933.31;4218104;34;33696;-93
2020/12/07 08:18:32;;;;;;;11.18;6.70;;;;;;;8.10;69.26;98941.16;4210349;34;35023;-90
2020/12/07 08:21:06;;;;;;;9.48;6.78;;;;;;;8.37;68.91;98955.72;4205346;34;32094;-93
2020/12/07 08:23:41;;;;;;;12.85;7.30;;;;;;;8.16;69.67;98953.00;4206581;34;33934;-95
2020/12/07 08:26:19;;;;;;;13.38;7.70;;;;;;;8.46;68.51;98959.16;4206212;34;33942;-93
2020/12/07 08:28:53;;;;;;;8.30;5.47;;;;;;;8.65;68.32;98968.41;4217874;33;34627;-94
2020/12/07 08:31:36;;;;;;;9.20;6.47;;;;;;;8.16;69.06;98970.00;4206188;34;33719;-93
2020/12/07 08:34:13;;;;;;;7.68;5.40;;;;;;;8.33;69.53;98964.37;4204064;34;34486;-94
2020/12/07 08:36:59;;;;;;;10.52;7.10;;;;;;;8.59;68.52;98961.12;4194010;34;32452;-93
2020/12/07 08:39:31;;;;;;;14.68;9.40;;;;;;;8.82;68.28;98964.44;4186988;34;34787;-93
2020/12/07 08:42:21;;;;;;;14.50;9.77;;;;;;;9.05;67.82;98973.31;4200184;33;32781;-96
2020/12/07 08:44:54;;;;;;;13.62;7.72;;;;;;;8.96;67.95;98978.00;4217966;33;33798;-94
2020/12/07 08:47:39;;;;;;;11.10;7.45;;;;;;;8.98;68.28;98979.50;4230573;33;33948;-93
2020/12/07 08:50:11;;;;;;;11.90;7.25;;;;;;;8.92;68.99;98985.66;4207803;33;33894;-95
2020/12/07 08:52:56;;;;;;;11.18;7.03;;;;;;;8.86;68.60;98989.13;4202073;34;33534;-94
2020/12/07 08:55:31;;;;;;;12.18;7.07;;;;;;;8.79;69.04;98989.06;4198196;34;32443;-96
2020/12/07 08:58:16;;;;;;;11.63;7.35;;;;;;;8.64;69.89;99001.78;4212712;33;33794;-96
2020/12/07 09:00:52;;;;;;;13.02;7.45;;;;;;;8.20;71.89;98995.50;4214334;33;32769;-96
2020/12/07 09:03:42;;;;;;;16.33;11.88;;;;;;;8.34;71.72;98992.94;4184185;34;32189;-96
2020/12/07 09:06:16;;;;;;;11.98;8.35;;;;;;;8.62;70.80;98999.28;4194376;34;33443;-93
2020/12/07 09:08:50;;;;;;;14.75;7.57;;;;;;;8.89;70.33;99002.22;4201239;34;34157;-92
2020/12/07 09:11:23;;;;;;;12.37;8.55;;;;;;;8.94;70.12;98999.75;4189639;34;33028;-93
2020/12/07 09:13:55;;;;;;;10.57;7.37;;;;;;;8.75;70.95;99001.25;4201254;34;33117;-92
2020/12/07 09:16:33;;;;;;;13.13;8.02;;;;;;;9.07;69.83;99001.75;4201325;34;33539;-93
2020/12/07 09:19:05;;;;;;;15.60;8.75;;;;;;;9.16;69.89;98997.88;4188261;34;32946;-94
2020/12/07 09:21:38;;;;;;;14.35;8.73;;;;;;;8.87;71.29;99008.84;4216065;33;34341;-94
2020/12/07 09:24:10;;;;;;;19.50;9.60;;;;;;;9.14;70.33;99012.56;4186221;34;34096;-93
2020/12/07 09:26:43;;;;;;;17.77;10.38;;;;;;;9.25;69.97;99005.78;4199295;34;33391;-93
2020/12/07 09:29:15;;;;;;;16.65;8.30;;;;;;;9.06;70.74;99008.16;4200497;34;34499;-92
2020/12/07 09:31:48;;;;;;;12.52;7.95;;;;;;;9.03;70.95;99003.16;4200377;34;33876;-92
2020/12/07 09:34:20;;;;;;;15.63;9.88;;;;;;;9.24;70.10;99010.37;4189319;34;34570;-93
2020/12/07 09:36:53;;;;;;;20.83;10.90;;;;;;;8.92;71.60;99000.97;4191516;34;33809;-93
2020/12/07 09:39:28;;;;;;;20.15;10.32;;;;;;;8.94;71.37;99004.34;4201166;34;33370;-94
2020/12/07 09:42:02;;;;;;;23.33;13.65;;;;;;;8.90;71.62;99008.44;4200663;34;33799;-95
2020/12/07 09:44:34;;;;;;;22.62;11.90;;;;;;;8.77;72.34;99003.75;4212174;34;34220;-94
2020/12/07 09:47:07;;;;;;;26.95;14.18;;;;;;;9.08;71.19;99010.66;4211608;34;33304;-94
2020/12/07 09:49:39;;;;;;;28.10;14.80;;;;;;;9.36;70.40;99007.97;4191235;34;33921;-95
2020/12/07 09:52:15;;;;;;;19.02;12.00;;;;;;;9.38;70.39;99015.84;4189799;34;33705;-94
2020/12/07 09:54:47;;;;;;;20.20;11.68;;;;;;;9.34;70.54;99012.69;4190987;34;33731;-94
2020/12/07 09:57:20;;;;;;;24.37;11.82;;;;;;;9.39;70.30;99014.81;4200717;34;33775;-94
2020/12/07 09:59:52;;;;;;;23.70;12.65;;;;;;;9.51;69.79;99010.53;4201306;34;33954;-93
2020/12/07 10:02:27;;;;;;;18.30;11.07;;;;;;;9.35;70.52;99008.97;4187267;34;234770;-96
2020/12/07 10:05:02;;;;;;;22.50;11.27;;;;;;;9.38;70.83;99010.44;4202582;34;32807;-94
2020/12/07 10:07:34;;;;;;;20.85;11.00;;;;;;;9.18;71.28;99011.16;4202077;34;35262;-93
2020/12/07 10:10:07;;;;;;;22.15;10.60;;;;;;;9.36;70.79;99008.78;4192068;34;33334;-95
2020/12/07 10:12:39;;;;;;;19.20;10.35;;;;;;;9.41;70.89;99007.38;4179332;34;32720;-93
2020/12/07 10:15:12;;;;;;;25.75;11.27;;;;;;;9.61;70.25;99013.72;4201419;34;34053;-93
2020/12/07 10:17:44;;;;;;;17.87;10.60;;;;;;;9.00;72.28;99008.94;4201116;34;35212;-92
2020/12/07 10:20:17;;;;;;;22.27;11.12;;;;;;;8.92;72.30;99000.97;4213900;33;34862;-93
2020/12/07 10:22:49;;;;;;;19.17;11.65;;;;;;;8.87;72.63;98998.88;4198102;34;33548;-94
2020/12/07 10:25:23;;;;;;;20.15;12.20;;;;;;;8.62;73.38;98993.06;4189767;34;33361;-93
2020/12/07 10:27:55;;;;;;;21.02;11.48;;;;;;;8.52;73.73;98993.38;4185439;34;33901;-93
2020/12/07 10:30:28;;;;;;;21.37;13.32;;;;;;;8.70;73.25;99000.16;4179602;34;34257;-94
2020/12/07 10:33:00;;;;;;;20.10;11.50;;;;;;;8.68;73.35;98996.84;4176592;34;33071;-94
2020/12/07 10:35:51;;;;;;;14.02;9.05;;;;;;;8.45;73.83;98993.31;4208142;34;32285;-93
2020/12/07 10:38:24;;;;;;;17.60;9.95;;;;;;;8.11;74.64;98999.34;4201126;34;33021;-94
2020/12/07 10:41:10;;;;;;;20.65;10.88;;;;;;;8.43;73.78;98991.81;4228833;33;33247;-93
2020/12/07 10:43:45;;;;;;;16.02;10.27;;;;;;;9.01;72.29;98989.88;4211534;33;34653;-94
2020/12/07 10:46:19;;;;;;;11.75;8.85;;;;;;;9.06;71.95;98997.38;4225423;33;32855;-95
2020/12/07 10:48:52;;;;;;;13.85;8.77;;;;;;;8.91;71.78;98989.38;4214397;34;34167;-94
2020/12/07 10:51:53;;;;;;;14.52;8.93;;;;;;;8.65;73.27;98995.34;4196125;34;33569;-95
2020/12/07 10:54:25;;;;;;;22.23;8.80;;;;;;;8.51;73.75;98994.41;4200985;34;33666;-93
2020/12/07 10:56:58;;;;;;;11.10;7.50;;;;;;;8.64;73.21;98994.53;4206824;34;33210;-94
2020/12/07 10:59:31;;;;;;;13.68;8.13;;;;;;;8.40;73.82;99002.97;4190369;34;33580;-93
2020/12/07 11:02:18;;;;;;;13.52;8.65;;;;;;;8.43;74.02;98997.22;4158420;34;35316;-93
2020/12/07 11:04:50;;;;;;;24.55;9.38;;;;;;;8.54;74.23;98994.03;4182787;34;33011;-94
2020/12/07 11:07:35;;;;;;;14.87;7.32;;;;;;;8.77;73.14;98995.66;4213803;34;33140;-96
2020/12/07 11:10:07;;;;;;;12.60;8.77;;;;;;;8.30;73.71;98993.31;4203744;34;33970;-96
2020/12/07 11:12:44;;;;;;;9.90;7.40;;;;;;;8.48;73.54;98992.91;4203107;33;34099;-92
2020/12/07 11:15:18;;;;;;;13.95;7.12;;;;;;;8.68;72.70;98989.56;4211579;34;32881;-95
2020/12/07 11:18:07;;;;;;;8.88;6.47;;;;;;;8.86;72.23;98985.59;4213330;34;34052;-94
2020/12/07 11:20:39;;;;;;;10.80;7.55;;;;;;;8.37;73.20;98993.41;4196821;34;33759;-92
2020/12/07 11:23:12;;;;;;;14.45;7.55;;;;;;;8.50;72.94;98998.12;4189202;34;33622;-90
2020/12/07 11:25:44;;;;;;;15.40;8.82;;;;;;;8.84;71.83;99000.09;4187791;34;34829;-92
2020/12/07 11:28:18;;;;;;;13.40;7.72;;;;;;;8.64;73.25;98999.09;4174241;34;34581;-92
2020/12/07 11:30:50;;;;;;;11.32;7.03;;;;;;;9.09;71.49;98998.84;4165399;34;33941;-92
2020/12/07 11:33:23;;;;;;;10.52;5.90;;;;;;;8.98;71.62;98994.81;4189216;34;33828;-95
2020/12/07 11:35:57;;;;;;;9.85;7.07;;;;;;;8.48;73.43;98992.09;4171083;34;32881;-93
2020/12/07 11:39:22;;;;;;;11.65;6.75;;;;;;;8.84;72.32;98983.09;4159217;34;32833;-91
2020/12/07 11:44:15;;;;;;;9.27;6.28;;;;;;;8.73;72.70;98997.94;4194264;34;33699;-90
2020/12/07 11:47:00;;;;;;;8.75;6.03;;;;;;;8.66;72.55;98992.47;4182793;34;33818;-90
2020/12/07 11:49:36;;;;;;;10.50;7.03;;;;;;;8.59;72.86;98990.75;4189473;34;32285;-95
2020/12/07 11:52:08;;;;;;;10.18;6.53;;;;;;;8.54;73.55;98998.59;4185328;34;35516;-90
2020/12/07 11:54:41;;;;;;;14.80;8.88;;;;;;;8.30;73.86;98993.31;4188574;34;34776;-91
2020/12/07 11:57:14;;;;;;;18.70;11.35;;;;;;;8.48;73.84;98995.63;4187496;34;34938;-96
2020/12/07 11:59:47;;;;;;;20.40;11.25;;;;;;;8.22;75.04;98995.31;4198748;34;33334;-91
2020/12/07 12:02:19;;;;;;;12.10;8.48;;;;;;;8.51;74.28;98993.59;4188846;34;33708;-92
2020/12/07 12:04:51;;;;;;;15.25;8.13;;;;;;;8.40;74.97;98997.59;4180089;34;33311;-89
2020/12/07 12:07:24;;;;;;;14.82;8.93;;;;;;;8.62;73.65;98999.28;4171092;34;33980;-91
2020/12/07 12:09:57;;;;;;;15.57;9.10;;;;;;;8.57;74.18;99001.72;4173957;34;34118;-96
2020/12/07 12:12:31;;;;;;;14.25;8.98;;;;;;;8.40;74.65;99002.97;4172782;34;33609;-90
2020/12/07 12:15:06;;;;;;;16.95;8.60;;;;;;;8.81;73.90;99007.75;4163730;34;34649;-92
2020/12/07 12:17:38;;;;;;;15.57;9.68;;;;;;;8.15;75.63;99011.41;4184056;34;33765;-90
2020/12/07 12:20:11;;;;;;;11.98;8.25;;;;;;;8.74;74.01;99004.16;4178366;34;35072;-90
2020/12/07 12:22:43;;;;;;;17.90;8.88;;;;;;;9.15;72.29;99000.75;4197628;34;35398;-91
2020/12/07 12:25:22;;;;;;;11.50;8.13;;;;;;;8.63;74.05;98992.84;4200956;34;33618;-95
2020/12/07 12:27:57;;;;;;;11.98;8.38;;;;;;;8.30;75.00;98998.72;4204624;34;33828;-94
2020/12/07 12:30:31;;;;;;;13.82;8.38;;;;;;;8.73;73.85;98997.94;4199255;34;32402;-92
2020/12/07 12:33:05;;;;;;;19.92;8.23;;;;;;;8.53;74.68;99003.13;4200019;34;32997;-91
2020/12/07 12:35:39;;;;;;;15.35;7.57;;;;;;;8.25;75.78;99001.16;4203842;34;33873;-96
2020/12/07 12:38:18;;;;;;;13.55;8.15;;;;;;;8.67;74.07;99004.09;4203016;34;34267;-91
2020/12/07 12:40:55;;;;;;;13.70;7.72;;;;;;;8.52;75.30;99006.84;4204030;33;33343;-92
2020/12/07 12:43:27;;;;;;;17.10;8.38;;;;;;;8.25;75.83;99006.53;4188422;34;34580;-92
2020/12/07 12:46:01;;;;;;;12.63;7.30;;;;;;;8.61;74.89;99007.56;4197199;34;34562;-95
2020/12/07 12:48:35;;;;;;;21.58;12.20;;;;;;;8.25;75.66;99001.16;4209314;34;33423;-92
2020/12/07 12:51:09;;;;;;;14.38;8.65;;;;;;;8.11;76.38;99010.09;4186685;34;34051;-93
2020/12/07 12:53:42;;;;;;;19.58;9.50;;;;;;;8.10;76.83;99009.28;4201926;34;33513;-93
2020/12/07 12:56:16;;;;;;;18.37;9.45;;;;;;;8.26;76.31;99002.84;4218025;33;34014;-96
2020/12/07 12:58:58;;;;;;;14.82;10.00;;;;;;;8.40;75.63;99006.50;4218148;34;34556;-96
2020/12/07 13:01:45;;;;;;;15.35;9.27;;;;;;;8.30;76.10;99017.56;4221606;33;34708;-95
2020/12/07 13:04:17;;;;;;;17.00;9.27;;;;;;;8.58;74.97;99016.84;4192843;34;34622;-96
2020/12/07 13:07:03;;;;;;;20.20;9.32;;;;;;;8.29;76.14;99018.59;4212032;33;33028;-96
2020/12/07 13:09:35;;;;;;;15.23;10.18;;;;;;;8.15;76.64;99015.94;4204387;33;33840;-96
2020/12/07 13:12:25;;;;;;;20.83;9.75;;;;;;;7.91;78.02;99026.00;4192711;34;34198;-96
2020/12/07 13:14:58;;;;;;;17.70;9.15;;;;;;;8.27;75.98;99026.03;4202522;34;35106;-93
2020/12/07 13:17:37;;;;;;;14.68;9.55;;;;;;;8.15;76.92;99021.34;4166733;34;34475;-92